createdAt,value
2019-03-29T00:00:05.446Z,2.83
2019-03-29T00:02:54.755Z,2.30
2019-03-29T00:05:24.713Z,2.77
2019-03-29T00:07:54.572Z,2.37
2019-03-29T00:10:24.612Z,2.70
2019-03-29T00:12:54.526Z,2.37
2019-03-29T00:15:43.123Z,2.10
2019-03-29T00:21:02.373Z,2.30
2019-03-29T00:23:32.187Z,2.83
2019-03-29T00:26:02.224Z,2.77
2019-03-29T00:28:32.162Z,1.87
2019-03-29T00:31:02.011Z,2.97
2019-03-29T00:33:31.965Z,2.20
2019-03-29T00:36:01.789Z,2.63
2019-03-29T00:38:50.401Z,2.87
2019-03-29T00:41:20.400Z,2.47
2019-03-29T00:43:50.239Z,2.90
2019-03-29T00:46:20.476Z,2.17
2019-03-29T00:48:50.285Z,2.63
2019-03-29T00:51:20.335Z,2.33
2019-03-29T00:53:50.156Z,1.93
2019-03-29T00:59:16.317Z,2.63
2019-03-29T01:01:46.678Z,2.90
2019-03-29T01:04:16.495Z,2.47
2019-03-29T01:06:46.372Z,2.50
2019-03-29T01:09:16.264Z,2.00
2019-03-29T01:11:46.105Z,2.57
2019-03-29T01:14:16.832Z,3.03
2019-03-29T01:16:46.762Z,3.70
2019-03-29T01:19:16.714Z,3.00
2019-03-29T01:21:46.529Z,2.53
2019-03-29T01:24:16.596Z,3.33
2019-03-29T01:26:46.407Z,3.13
2019-03-29T01:29:16.339Z,2.90
2019-03-29T01:31:46.168Z,2.53
2019-03-29T01:34:17.010Z,3.10
2019-03-29T01:36:47.100Z,2.63
2019-03-29T01:39:17.219Z,3.50
2019-03-29T01:41:48.670Z,3.17
2019-03-29T01:44:18.500Z,2.80
2019-03-29T01:46:48.646Z,2.90
2019-03-29T01:49:18.456Z,2.43
2019-03-29T01:51:48.312Z,2.50
2019-03-29T01:54:18.153Z,2.40
2019-03-29T01:56:48.308Z,2.57
2019-03-29T01:59:18.147Z,2.52
2019-03-29T02:01:47.958Z,2.47
2019-03-29T02:04:17.879Z,2.83
2019-03-29T02:06:47.703Z,3.37
2019-03-29T02:09:17.627Z,2.70
2019-03-29T02:11:47.448Z,3.30
2019-03-29T02:14:18.032Z,2.57
2019-03-29T02:16:48.962Z,2.50
2019-03-29T02:19:37.762Z,3.87
2019-03-29T02:22:08.967Z,2.97
2019-03-29T02:24:39.645Z,3.13
2019-03-29T02:29:58.285Z,3.10
2019-03-29T02:32:28.144Z,2.43
2019-03-29T02:35:16.897Z,3.23
2019-03-29T02:37:46.718Z,2.67
2019-03-29T02:40:16.575Z,3.13
2019-03-29T02:42:46.412Z,2.83
2019-03-29T02:45:16.740Z,3.00
2019-03-29T02:47:48.692Z,2.53
2019-03-29T02:50:18.265Z,2.67
2019-03-29T02:52:48.082Z,3.10
2019-03-29T02:55:18.006Z,3.47
2019-03-29T02:57:47.882Z,2.90
2019-03-29T03:00:38.127Z,3.63
2019-03-29T03:03:07.949Z,2.90
2019-03-29T03:05:38.666Z,3.60
2019-03-29T03:08:08.502Z,2.87
2019-03-29T03:10:38.586Z,3.20
2019-03-29T03:13:08.476Z,3.40
2019-03-29T03:15:38.611Z,3.27
2019-03-29T03:18:08.444Z,2.80
2019-03-29T03:20:38.463Z,3.30
2019-03-29T03:23:08.338Z,2.80
2019-03-29T03:25:38.149Z,3.77
2019-03-29T03:28:08.049Z,3.93
2019-03-29T03:30:37.925Z,3.37
2019-03-29T03:33:07.939Z,3.83
2019-03-29T03:35:37.748Z,3.93
2019-03-29T03:38:07.662Z,3.40
2019-03-29T03:40:37.522Z,3.33
2019-03-29T03:43:07.495Z,3.40
2019-03-29T03:45:37.444Z,3.00
2019-03-29T03:48:07.533Z,3.67
2019-03-29T03:50:41.894Z,3.33
2019-03-29T03:53:12.254Z,3.60
2019-03-29T03:56:00.921Z,3.67
2019-03-29T03:58:31.306Z,3.40
2019-03-29T04:01:40.196Z,3.47
2019-03-29T04:04:28.801Z,3.57
2019-03-29T04:06:58.834Z,3.27
2019-03-29T04:09:28.707Z,4.47
2019-03-29T04:14:54.245Z,3.47
2019-03-29T04:17:24.079Z,3.83
2019-03-29T04:19:53.942Z,3.73
2019-03-29T04:22:23.890Z,3.57
2019-03-29T04:25:12.541Z,3.60
2019-03-29T04:27:42.412Z,4.40
2019-03-29T04:30:31.066Z,3.87
2019-03-29T04:33:00.986Z,3.83
2019-03-29T04:35:30.872Z,3.60
2019-03-29T04:38:19.534Z,3.93
2019-03-29T04:40:49.395Z,3.77
2019-03-29T04:43:19.285Z,4.00
2019-03-29T04:45:49.123Z,3.90
2019-03-29T04:48:19.222Z,4.50
2019-03-29T04:50:49.140Z,4.10
2019-03-29T04:53:19.422Z,4.50
2019-03-29T04:55:49.312Z,3.63
2019-03-29T04:58:19.292Z,4.17
2019-03-29T05:00:49.226Z,4.13
2019-03-29T05:03:19.367Z,3.87
2019-03-29T05:06:08.194Z,3.77
2019-03-29T05:08:38.036Z,4.90
2019-03-29T05:14:17.113Z,4.43
2019-03-29T05:16:47.200Z,4.13
2019-03-29T05:19:17.093Z,3.73
2019-03-29T05:22:05.743Z,3.83
2019-03-29T05:24:35.682Z,4.00
2019-03-29T05:27:05.566Z,3.83
2019-03-29T05:29:35.393Z,3.30
2019-03-29T05:32:05.336Z,3.97
2019-03-29T05:34:35.176Z,3.87
2019-03-29T05:37:05.290Z,3.30
2019-03-29T05:39:35.131Z,3.77
2019-03-29T05:42:05.045Z,3.70
2019-03-29T05:44:53.767Z,3.80
2019-03-29T05:50:17.795Z,3.90
2019-03-29T05:52:47.641Z,4.07
2019-03-29T05:55:18.720Z,3.63
2019-03-29T05:57:49.389Z,3.30
2019-03-29T06:00:20.412Z,3.57
2019-03-29T06:02:50.268Z,4.13
2019-03-29T06:05:39.143Z,3.30
2019-03-29T06:08:08.969Z,3.73
2019-03-29T06:10:48.862Z,3.53
2019-03-29T06:13:10.662Z,4.23
2019-03-29T06:15:40.573Z,3.30
2019-03-29T06:18:11.096Z,3.47
2019-03-29T06:20:41.073Z,3.40
2019-03-29T06:23:10.930Z,4.00
2019-03-29T06:25:40.836Z,3.03
2019-03-29T06:28:10.762Z,3.63
2019-03-29T06:30:40.606Z,3.00
2019-03-29T06:39:15.932Z,3.70
2019-03-29T06:41:45.824Z,3.20
2019-03-29T06:44:15.792Z,4.17
2019-03-29T06:49:34.473Z,3.60
2019-03-29T06:54:54.902Z,3.63
2019-03-29T06:57:24.889Z,3.90
2019-03-29T06:59:54.830Z,3.57
2019-03-29T07:02:24.948Z,4.20
2019-03-29T07:04:54.805Z,4.33
2019-03-29T07:07:44.636Z,3.97
2019-03-29T07:10:15.269Z,4.20
2019-03-29T07:12:45.107Z,4.20
2019-03-29T07:15:15.299Z,3.60
2019-03-29T07:17:45.121Z,4.30
2019-03-29T07:20:15.057Z,4.37
2019-03-29T07:22:44.929Z,4.60
2019-03-29T07:28:24.101Z,4.30
2019-03-29T07:31:12.819Z,4.80
2019-03-29T07:34:01.505Z,4.27
2019-03-29T07:36:50.198Z,4.60
2019-03-29T07:39:40.545Z,4.80
2019-03-29T07:42:10.508Z,3.90
2019-03-29T07:44:40.608Z,4.70
2019-03-29T07:50:19.088Z,4.53
2019-03-29T07:52:48.779Z,5.23
2019-03-29T07:58:27.959Z,5.17
2019-03-29T08:01:18.165Z,4.50
2019-03-29T08:03:58.974Z,5.03
2019-03-29T08:06:28.801Z,5.27
2019-03-29T08:11:56.785Z,5.07
2019-03-29T08:14:26.703Z,4.93
2019-03-29T08:17:15.625Z,5.07
2019-03-29T08:19:45.882Z,4.67
2019-03-29T08:25:30.814Z,4.37
2019-03-29T08:28:11.628Z,4.63
2019-03-29T08:30:52.491Z,5.20
2019-03-29T08:33:22.553Z,5.10
2019-03-29T08:35:54.758Z,4.97
2019-03-29T08:38:24.742Z,5.10
2019-03-29T08:40:56.250Z,5.23
2019-03-29T08:43:44.965Z,4.40
2019-03-29T08:46:35.251Z,4.53
2019-03-29T08:49:24.016Z,5.40
2019-03-29T08:51:53.885Z,5.70
2019-03-29T08:54:24.026Z,4.60
2019-03-29T08:59:49.894Z,6.07
2019-03-29T09:02:19.982Z,5.50
2019-03-29T09:04:50.363Z,6.17
2019-03-29T09:07:44.919Z,4.67
2019-03-29T09:10:22.806Z,5.00
2019-03-29T09:12:52.716Z,5.07
2019-03-29T09:15:41.213Z,4.93
2019-03-29T09:18:11.087Z,5.13
2019-03-29T09:20:40.933Z,5.70
2019-03-29T09:23:10.993Z,5.73
2019-03-29T09:28:36.494Z,5.67
2019-03-29T09:34:15.592Z,5.40
2019-03-29T09:37:04.362Z,5.20
2019-03-29T09:42:10.124Z,5.17
2019-03-29T09:44:41.516Z,5.83
2019-03-29T09:47:11.363Z,5.33
2019-03-29T09:49:41.217Z,5.73
2019-03-29T09:58:26.592Z,5.27
2019-03-29T10:00:56.543Z,5.70
2019-03-29T10:06:15.568Z,6.07
2019-03-29T10:08:46.805Z,6.60
2019-03-29T10:11:16.915Z,7.13
2019-03-29T10:13:46.729Z,5.40
2019-03-29T10:21:46.708Z,5.67
2019-03-29T10:24:16.525Z,5.53
2019-03-29T10:29:44.746Z,5.07
2019-03-29T10:32:14.555Z,5.70
2019-03-29T10:34:44.506Z,5.37
2019-03-29T10:37:14.337Z,5.53
2019-03-29T10:40:02.900Z,5.03
2019-03-29T10:42:32.868Z,5.33
2019-03-29T10:45:05.348Z,5.47
2019-03-29T10:47:43.861Z,5.47
2019-03-29T10:50:07.364Z,5.20
2019-03-29T10:52:37.194Z,5.03
2019-03-29T10:55:07.063Z,4.60
2019-03-29T10:57:37.050Z,4.50
2019-03-29T11:00:28.395Z,4.87
2019-03-29T11:05:33.602Z,4.80
2019-03-29T11:10:39.754Z,5.00
2019-03-29T11:13:13.074Z,5.60
2019-03-29T11:18:35.649Z,4.83
2019-03-29T11:21:44.585Z,5.33
2019-03-29T11:24:14.416Z,5.17
2019-03-29T11:27:03.001Z,5.17
2019-03-29T11:29:32.866Z,5.40
2019-03-29T11:32:02.930Z,5.73
2019-03-29T11:34:32.771Z,6.13
2019-03-29T11:37:02.745Z,5.47
2019-03-29T11:42:28.345Z,5.77
2019-03-29T11:44:58.248Z,5.20
2019-03-29T11:47:28.268Z,5.73
2019-03-29T11:50:37.262Z,4.70
2019-03-29T11:53:07.182Z,6.13
2019-03-29T11:58:44.456Z,5.10
2019-03-29T12:01:14.306Z,5.03
2019-03-29T12:03:44.212Z,5.60
2019-03-29T12:09:19.780Z,5.07
2019-03-29T12:11:49.639Z,5.83
2019-03-29T12:14:19.678Z,5.13
2019-03-29T12:19:45.597Z,5.80
2019-03-29T12:22:15.420Z,4.93
2019-03-29T12:24:45.443Z,4.57
2019-03-29T12:27:15.280Z,5.53
2019-03-29T12:29:45.136Z,5.30
2019-03-29T12:35:35.633Z,5.33
2019-03-29T12:41:07.333Z,5.37
2019-03-29T12:43:56.291Z,5.15
2019-03-29T12:46:26.342Z,5.27
2019-03-29T12:48:56.168Z,4.93
2019-03-29T12:51:26.004Z,5.30
2019-03-29T12:53:56.019Z,5.07
2019-03-29T12:56:25.853Z,4.97
2019-03-29T12:58:55.810Z,5.60
2019-03-29T13:01:38.462Z,5.10
2019-03-29T13:03:57.751Z,5.30
2019-03-29T13:06:27.616Z,5.30
2019-03-29T13:12:04.938Z,4.80
2019-03-29T13:14:53.647Z,5.23
2019-03-29T13:20:03.686Z,5.23
2019-03-29T13:22:52.435Z,5.17
2019-03-29T13:25:22.442Z,5.17
2019-03-29T13:27:55.411Z,5.27
2019-03-29T13:30:26.517Z,4.87
2019-03-29T13:32:56.442Z,5.70
2019-03-29T13:35:26.356Z,5.63
2019-03-29T13:38:35.460Z,5.00
2019-03-29T13:41:06.974Z,5.13
2019-03-29T13:43:36.977Z,5.37
2019-03-29T13:49:02.734Z,6.10
2019-03-29T13:51:32.556Z,5.10
2019-03-29T13:54:02.671Z,5.70
2019-03-29T13:56:32.625Z,4.87
2019-03-29T13:59:02.520Z,5.23
2019-03-29T14:01:32.447Z,6.13
2019-03-29T14:04:02.344Z,5.60
2019-03-29T14:06:32.414Z,5.30
2019-03-29T14:09:02.241Z,5.77
2019-03-29T14:11:32.422Z,5.23
2019-03-29T14:14:02.266Z,5.60
2019-03-29T14:16:32.348Z,5.60
2019-03-29T14:19:02.185Z,5.20
2019-03-29T14:21:32.026Z,5.60
2019-03-29T14:24:01.865Z,5.47
2019-03-29T14:26:31.720Z,5.97
2019-03-29T14:29:01.656Z,6.10
2019-03-29T14:31:31.537Z,5.33
2019-03-29T14:34:01.560Z,4.83
2019-03-29T14:36:31.369Z,5.60
2019-03-29T14:39:01.427Z,5.00
2019-03-29T14:41:31.285Z,6.20
2019-03-29T14:44:01.350Z,5.17
2019-03-29T14:49:42.582Z,4.90
2019-03-29T14:52:12.437Z,5.60
2019-03-29T14:54:42.550Z,5.27
2019-03-29T14:57:14.726Z,5.33
2019-03-29T14:59:55.465Z,4.90
2019-03-29T15:02:25.342Z,5.07
2019-03-29T15:04:55.223Z,5.47
2019-03-29T15:10:34.545Z,5.23
2019-03-29T15:16:14.002Z,5.13
2019-03-29T15:18:43.815Z,5.27
2019-03-29T15:21:13.709Z,5.10
2019-03-29T15:23:43.586Z,4.67
2019-03-29T15:26:13.680Z,5.13
2019-03-29T15:28:43.506Z,4.90
2019-03-29T15:31:32.450Z,5.80
2019-03-29T15:34:02.491Z,5.43
2019-03-29T15:36:32.355Z,4.53
2019-03-29T15:39:02.478Z,4.77
2019-03-29T15:44:52.693Z,4.57
2019-03-29T15:53:12.082Z,4.87
2019-03-29T15:55:42.368Z,4.60
2019-03-29T15:58:32.524Z,4.37
2019-03-29T16:01:02.363Z,4.50
2019-03-29T16:06:52.340Z,4.03
2019-03-29T16:09:22.361Z,4.37
2019-03-29T16:14:48.203Z,4.07
2019-03-29T16:17:18.031Z,4.67
2019-03-29T16:20:27.077Z,4.50
2019-03-29T16:22:56.991Z,4.57
2019-03-29T16:25:26.919Z,4.97
2019-03-29T16:27:57.067Z,5.33
2019-03-29T16:30:26.927Z,5.00
2019-03-29T16:32:58.838Z,5.00
2019-03-29T16:35:28.685Z,5.43
2019-03-29T16:37:58.846Z,5.87
2019-03-29T16:40:31.085Z,4.97
2019-03-29T16:43:00.347Z,5.63
2019-03-29T16:45:48.874Z,4.90
2019-03-29T16:51:14.078Z,5.33
2019-03-29T16:53:44.076Z,4.63
2019-03-29T17:02:07.862Z,4.03
2019-03-29T17:04:37.893Z,4.27
2019-03-29T17:07:07.703Z,3.70
2019-03-29T17:09:37.760Z,4.87
2019-03-29T17:12:07.612Z,4.10
2019-03-29T17:14:37.471Z,3.47
2019-03-29T17:17:19.320Z,3.30
2019-03-29T17:19:49.311Z,4.23
2019-03-29T17:28:26.852Z,3.87
2019-03-29T17:33:53.488Z,4.20
2019-03-29T17:36:23.334Z,3.93
2019-03-29T17:38:53.169Z,3.80
2019-03-29T17:41:23.266Z,3.73
2019-03-29T17:43:53.200Z,4.37
2019-03-29T17:46:23.262Z,4.57
2019-03-29T17:51:48.574Z,4.13
2019-03-29T17:54:18.410Z,4.17
2019-03-29T17:56:48.659Z,4.07
2019-03-29T17:59:18.492Z,3.90
2019-03-29T18:01:48.478Z,4.67
2019-03-29T18:04:18.353Z,5.03
2019-03-29T18:07:08.854Z,4.87
2019-03-29T18:09:38.729Z,4.53
2019-03-29T18:12:47.716Z,4.50
2019-03-29T18:15:19.117Z,4.50
2019-03-29T18:17:49.093Z,4.63
2019-03-29T18:20:37.928Z,4.87
2019-03-29T18:26:37.783Z,4.67
2019-03-29T18:29:07.986Z,4.80
2019-03-29T18:32:17.008Z,4.83
2019-03-29T18:34:47.147Z,4.50
2019-03-29T18:37:56.256Z,4.77
2019-03-29T18:43:34.286Z,4.27
2019-03-29T18:46:04.158Z,4.67
2019-03-29T18:48:34.327Z,4.77
2019-03-29T18:51:04.210Z,5.27
2019-03-29T18:53:34.356Z,5.73
2019-03-29T18:56:04.204Z,5.33
2019-03-29T18:58:34.523Z,5.10
2019-03-29T19:01:04.621Z,4.83
2019-03-29T19:03:34.769Z,5.17
2019-03-29T19:09:00.198Z,5.57
2019-03-29T19:11:32.479Z,4.77
2019-03-29T19:14:21.141Z,4.23
2019-03-29T19:16:58.884Z,4.23
2019-03-29T19:19:23.534Z,5.30
2019-03-29T19:21:53.400Z,3.80
2019-03-29T19:27:32.698Z,4.67
2019-03-29T19:30:41.580Z,4.70
2019-03-29T19:35:47.505Z,4.47
2019-03-29T19:38:17.355Z,4.53
2019-03-29T19:40:47.553Z,5.07
2019-03-29T19:43:17.454Z,4.60
2019-03-29T19:45:47.630Z,4.50
2019-03-29T19:48:17.521Z,4.60
2019-03-29T19:54:07.107Z,5.27
2019-03-29T19:56:48.803Z,5.20
2019-03-29T19:59:18.718Z,5.10
2019-03-29T20:02:07.472Z,5.70
2019-03-29T20:04:37.349Z,5.83
2019-03-29T20:07:07.186Z,5.30
2019-03-29T20:09:55.946Z,5.97
2019-03-29T20:12:44.843Z,5.03
2019-03-29T20:15:15.178Z,6.53
2019-03-29T20:20:54.607Z,6.47
2019-03-29T20:36:39.176Z,6.57
2019-03-29T20:39:09.422Z,6.93
2019-03-29T20:41:58.030Z,6.93
2019-03-29T20:44:28.357Z,6.53
2019-03-29T20:46:58.246Z,6.37
2019-03-29T20:49:28.441Z,6.70
2019-03-29T20:51:58.292Z,6.07
2019-03-29T20:54:29.542Z,6.83
2019-03-29T20:56:59.715Z,6.33
2019-03-29T20:59:29.869Z,6.17
2019-03-29T21:02:18.504Z,6.67
2019-03-29T21:04:48.688Z,6.10
2019-03-29T21:07:37.587Z,6.37
2019-03-29T21:10:07.998Z,6.30
2019-03-29T21:12:38.057Z,6.90
2019-03-29T21:15:08.566Z,6.87
2019-03-29T21:17:39.213Z,6.10
2019-03-29T21:20:48.126Z,6.80
2019-03-29T21:23:36.739Z,6.03
2019-03-29T21:26:06.786Z,7.20
2019-03-29T21:28:36.656Z,7.20
2019-03-29T21:31:06.527Z,7.13
2019-03-29T21:33:55.195Z,7.90
2019-03-29T21:39:17.021Z,6.93
2019-03-29T21:44:45.203Z,7.80
2019-03-29T21:47:16.357Z,8.07
2019-03-29T21:49:46.348Z,6.40
2019-03-29T21:52:16.320Z,7.00
2019-03-29T21:54:46.160Z,7.80
2019-03-29T21:57:16.355Z,7.63
2019-03-29T22:02:55.549Z,7.70
2019-03-29T22:08:44.532Z,7.77
2019-03-29T22:11:33.194Z,7.33
2019-03-29T22:14:03.053Z,8.03
2019-03-29T22:16:51.669Z,7.63
2019-03-29T22:19:21.916Z,8.27
2019-03-29T22:25:01.614Z,6.87
2019-03-29T22:27:31.504Z,7.60
2019-03-29T22:30:01.428Z,8.50
2019-03-29T22:32:31.255Z,7.63
2019-03-29T22:35:21.441Z,7.77
2019-03-29T22:41:00.464Z,8.10
2019-03-29T22:43:30.350Z,8.07
2019-03-29T22:46:00.270Z,8.27
2019-03-29T22:48:30.097Z,8.03
2019-03-29T22:51:00.316Z,9.03
2019-03-29T22:53:49.268Z,8.30
2019-03-29T22:56:19.164Z,8.57
2019-03-29T22:59:07.779Z,8.73
2019-03-29T23:04:52.516Z,7.90
2019-03-29T23:07:22.350Z,9.10
2019-03-29T23:09:52.668Z,8.13
2019-03-29T23:12:22.527Z,8.73
2019-03-29T23:15:12.833Z,9.23
2019-03-29T23:17:42.753Z,9.03
2019-03-29T23:20:31.394Z,8.50
2019-03-29T23:23:01.263Z,8.40
2019-03-29T23:25:31.102Z,9.03
2019-03-29T23:28:40.117Z,9.73
2019-03-29T23:31:30.268Z,8.80
2019-03-29T23:34:00.112Z,8.80
2019-03-29T23:36:30.199Z,8.60
2019-03-29T23:39:00.059Z,8.93
2019-03-29T23:41:30.261Z,8.17
2019-03-29T23:44:00.091Z,9.03
2019-03-29T23:46:48.659Z,7.80
2019-03-29T23:49:29.250Z,8.23
2019-03-29T23:51:59.177Z,7.57
2019-03-29T23:54:29.330Z,8.33
